sensor_id;sensor_type;location;lat;lon;timestamp;P1;durP1;ratioP1;P2;durP2;ratioP2
70165;SDS011;57541;47.408;18.822;2023-06-26T00:00:20;15.45;;;9.15;;
70165;SDS011;57541;47.408;18.822;2023-06-26T00:00:52;12.65;;;8.40;;
70165;SDS011;57541;47.408;18.822;2023-06-26T00:01:24;13.63;;;9.43;;
70165;SDS011;57541;47.408;18.822;2023-06-26T00:01:56;15.43;;;9.13;;
70165;SDS011;57541;47.408;18.822;2023-06-26T00:02:27;13.80;;;8.55;;
70165;SDS011;57541;47.408;18.822;2023-06-26T00:02:59;15.05;;;9.75;;
70165;SDS011;57541;47.408;18.822;2023-06-26T00:03:31;14.20;;;8.40;;
70165;SDS011;57541;47.408;18.822;2023-06-26T00:04:04;14.20;;;8.90;;
70165;SDS011;57541;47.408;18.822;2023-06-26T00:04:36;15.23;;;8.57;;
70165;SDS011;57541;47.408;18.822;2023-06-26T00:05:08;13.95;;;8.38;;
70165;SDS011;57541;47.408;18.822;2023-06-26T00:05:40;14.35;;;9.38;;
70165;SDS011;57541;47.408;18.822;2023-06-26T00:06:13;13.85;;;8.73;;
70165;SDS011;57541;47.408;18.822;2023-06-26T00:06:45;14.02;;;8.95;;
70165;SDS011;57541;47.408;18.822;2023-06-26T00:07:17;14.65;;;8.73;;
70165;SDS011;57541;47.408;18.822;2023-06-26T00:07:49;16.90;;;9.75;;
70165;SDS011;57541;47.408;18.822;2023-06-26T00:08:20;14.80;;;8.73;;
70165;SDS011;57541;47.408;18.822;2023-06-26T00:08:53;16.27;;;9.57;;
70165;SDS011;57541;47.408;18.822;2023-06-26T00:09:25;13.98;;;9.45;;
70165;SDS011;57541;47.408;18.822;2023-06-26T00:09:57;15.88;;;9.10;;
70165;SDS011;57541;47.408;18.822;2023-06-26T00:10:30;13.60;;;8.95;;
70165;SDS011;57541;47.408;18.822;2023-06-26T00:11:01;15.27;;;9.48;;
70165;SDS011;57541;47.408;18.822;2023-06-26T00:11:33;14.10;;;9.00;;
70165;SDS011;57541;47.408;18.822;2023-06-26T00:12:05;14.65;;;9.18;;
70165;SDS011;57541;47.408;18.822;2023-06-26T00:12:37;16.15;;;8.65;;
70165;SDS011;57541;47.408;18.822;2023-06-26T00:13:08;15.18;;;9.10;;
70165;SDS011;57541;47.408;18.822;2023-06-26T00:13:43;14.05;;;9.15;;
70165;SDS011;57541;47.408;18.822;2023-06-26T00:14:15;15.23;;;8.17;;
70165;SDS011;57541;47.408;18.822;2023-06-26T00:14:47;12.98;;;8.52;;
70165;SDS011;57541;47.408;18.822;2023-06-26T00:15:18;12.85;;;8.73;;
70165;SDS011;57541;47.408;18.822;2023-06-26T00:15:50;13.52;;;9.02;;
70165;SDS011;57541;47.408;18.822;2023-06-26T00:16:22;14.77;;;8.50;;
70165;SDS011;57541;47.408;18.822;2023-06-26T00:16:54;13.68;;;8.55;;
70165;SDS011;57541;47.408;18.822;2023-06-26T00:17:25;13.32;;;8.18;;
70165;SDS011;57541;47.408;18.822;2023-06-26T00:17:58;14.85;;;8.57;;
70165;SDS011;57541;47.408;18.822;2023-06-26T00:18:30;14.48;;;8.88;;
70165;SDS011;57541;47.408;18.822;2023-06-26T00:19:02;14.50;;;9.10;;
70165;SDS011;57541;47.408;18.822;2023-06-26T00:19:33;14.23;;;9.33;;
70165;SDS011;57541;47.408;18.822;2023-06-26T00:20:06;13.98;;;9.13;;
70165;SDS011;57541;47.408;18.822;2023-06-26T00:20:38;14.98;;;9.10;;
70165;SDS011;57541;47.408;18.822;2023-06-26T00:21:10;16.17;;;9.18;;
70165;SDS011;57541;47.408;18.822;2023-06-26T00:21:42;14.35;;;9.43;;
70165;SDS011;57541;47.408;18.822;2023-06-26T00:22:23;14.98;;;9.60;;
70165;SDS011;57541;47.408;18.822;2023-06-26T00:22:54;16.42;;;9.13;;
70165;SDS011;57541;47.408;18.822;2023-06-26T00:23:30;15.32;;;9.52;;
70165;SDS011;57541;47.408;18.822;2023-06-26T00:24:10;14.20;;;9.45;;
70165;SDS011;57541;47.408;18.822;2023-06-26T00:24:42;13.70;;;8.90;;
70165;SDS011;57541;47.408;18.822;2023-06-26T00:25:16;12.73;;;8.43;;
70165;SDS011;57541;47.408;18.822;2023-06-26T00:25:47;14.95;;;9.30;;
70165;SDS011;57541;47.408;18.822;2023-06-26T00:26:19;15.50;;;8.60;;
70165;SDS011;57541;47.408;18.822;2023-06-26T00:26:51;16.85;;;9.15;;
70165;SDS011;57541;47.408;18.822;2023-06-26T00:27:22;14.27;;;8.68;;
70165;SDS011;57541;47.408;18.822;2023-06-26T00:27:54;14.60;;;9.45;;
70165;SDS011;57541;47.408;18.822;2023-06-26T00:28:26;14.32;;;9.48;;
70165;SDS011;57541;47.408;18.822;2023-06-26T00:28:57;14.63;;;8.63;;
70165;SDS011;57541;47.408;18.822;2023-06-26T00:29:29;15.60;;;9.00;;
70165;SDS011;57541;47.408;18.822;2023-06-26T00:30:01;13.68;;;8.55;;
70165;SDS011;57541;47.408;18.822;2023-06-26T00:30:32;14.40;;;9.23;;
70165;SDS011;57541;47.408;18.822;2023-06-26T00:31:04;14.40;;;8.90;;
70165;SDS011;57541;47.408;18.822;2023-06-26T00:31:36;14.13;;;8.63;;
70165;SDS011;57541;47.408;18.822;2023-06-26T00:32:09;15.98;;;9.43;;
70165;SDS011;57541;47.408;18.822;2023-06-26T00:32:41;15.57;;;9.60;;
70165;SDS011;57541;47.408;18.822;2023-06-26T00:33:12;14.75;;;9.63;;
70165;SDS011;57541;47.408;18.822;2023-06-26T00:33:44;15.45;;;10.05;;
70165;SDS011;57541;47.408;18.822;2023-06-26T00:34:16;15.27;;;9.50;;
70165;SDS011;57541;47.408;18.822;2023-06-26T00:34:47;14.63;;;9.23;;
70165;SDS011;57541;47.408;18.822;2023-06-26T00:35:19;15.77;;;9.57;;
70165;SDS011;57541;47.408;18.822;2023-06-26T00:35:51;14.43;;;9.17;;
70165;SDS011;57541;47.408;18.822;2023-06-26T00:36:22;16.42;;;8.73;;
70165;SDS011;57541;47.408;18.822;2023-06-26T00:36:54;17.35;;;9.55;;
70165;SDS011;57541;47.408;18.822;2023-06-26T00:37:26;15.63;;;9.75;;
70165;SDS011;57541;47.408;18.822;2023-06-26T00:37:58;13.93;;;9.48;;
70165;SDS011;57541;47.408;18.822;2023-06-26T00:38:30;17.08;;;9.60;;
70165;SDS011;57541;47.408;18.822;2023-06-26T00:39:02;13.32;;;8.50;;
70165;SDS011;57541;47.408;18.822;2023-06-26T00:39:34;14.95;;;10.07;;
70165;SDS011;57541;47.408;18.822;2023-06-26T00:40:06;15.90;;;9.00;;
70165;SDS011;57541;47.408;18.822;2023-06-26T00:40:38;16.02;;;9.15;;
70165;SDS011;57541;47.408;18.822;2023-06-26T00:41:10;17.10;;;9.43;;
70165;SDS011;57541;47.408;18.822;2023-06-26T00:41:44;14.48;;;9.43;;
70165;SDS011;57541;47.408;18.822;2023-06-26T00:42:16;15.38;;;9.90;;
70165;SDS011;57541;47.408;18.822;2023-06-26T00:42:47;15.02;;;9.77;;
70165;SDS011;57541;47.408;18.822;2023-06-26T00:43:19;15.57;;;9.40;;
70165;SDS011;57541;47.408;18.822;2023-06-26T00:43:51;18.02;;;9.93;;
70165;SDS011;57541;47.408;18.822;2023-06-26T00:44:22;14.75;;;9.20;;
70165;SDS011;57541;47.408;18.822;2023-06-26T00:44:54;13.70;;;9.85;;
70165;SDS011;57541;47.408;18.822;2023-06-26T00:45:26;13.80;;;9.32;;
70165;SDS011;57541;47.408;18.822;2023-06-26T00:46:13;16.95;;;9.38;;
70165;SDS011;57541;47.408;18.822;2023-06-26T00:46:45;14.80;;;9.60;;
70165;SDS011;57541;47.408;18.822;2023-06-26T00:47:17;13.93;;;8.85;;
70165;SDS011;57541;47.408;18.822;2023-06-26T00:47:49;14.50;;;8.80;;
70165;SDS011;57541;47.408;18.822;2023-06-26T00:48:21;14.27;;;9.73;;
70165;SDS011;57541;47.408;18.822;2023-06-26T00:48:53;15.15;;;9.60;;
70165;SDS011;57541;47.408;18.822;2023-06-26T00:49:26;14.80;;;9.45;;
70165;SDS011;57541;47.408;18.822;2023-06-26T00:49:58;16.50;;;9.27;;
70165;SDS011;57541;47.408;18.822;2023-06-26T00:50:30;15.57;;;9.48;;
70165;SDS011;57541;47.408;18.822;2023-06-26T00:51:02;14.65;;;9.65;;
70165;SDS011;57541;47.408;18.822;2023-06-26T00:51:34;14.63;;;9.45;;
70165;SDS011;57541;47.408;18.822;2023-06-26T00:52:06;15.93;;;9.77;;
70165;SDS011;57541;47.408;18.822;2023-06-26T00:52:38;15.77;;;9.30;;
70165;SDS011;57541;47.408;18.822;2023-06-26T00:53:10;18.95;;;9.23;;
70165;SDS011;57541;47.408;18.822;2023-06-26T00:53:42;17.23;;;9.88;;
70165;SDS011;57541;47.408;18.822;2023-06-26T00:54:14;15.45;;;9.75;;
70165;SDS011;57541;47.408;18.822;2023-06-26T00:54:51;14.02;;;9.75;;
70165;SDS011;57541;47.408;18.822;2023-06-26T00:55:23;13.75;;;9.52;;
70165;SDS011;57541;47.408;18.822;2023-06-26T00:55:55;13.70;;;9.07;;
70165;SDS011;57541;47.408;18.822;2023-06-26T00:56:27;14.93;;;9.25;;
70165;SDS011;57541;47.408;18.822;2023-06-26T00:56:59;14.50;;;8.93;;
70165;SDS011;57541;47.408;18.822;2023-06-26T00:57:31;15.40;;;9.97;;
70165;SDS011;57541;47.408;18.822;2023-06-26T00:58:04;16.10;;;9.40;;
70165;SDS011;57541;47.408;18.822;2023-06-26T00:58:36;17.15;;;9.75;;
70165;SDS011;57541;47.408;18.822;2023-06-26T00:59:08;15.80;;;9.20;;
70165;SDS011;57541;47.408;18.822;2023-06-26T00:59:39;16.38;;;9.32;;
70165;SDS011;57541;47.408;18.822;2023-06-26T01:00:12;14.70;;;9.50;;
70165;SDS011;57541;47.408;18.822;2023-06-26T01:00:44;15.70;;;9.38;;
70165;SDS011;57541;47.408;18.822;2023-06-26T01:01:16;16.55;;;9.73;;
70165;SDS011;57541;47.408;18.822;2023-06-26T01:01:48;15.75;;;9.68;;
70165;SDS011;57541;47.408;18.822;2023-06-26T01:02:20;14.50;;;8.65;;
70165;SDS011;57541;47.408;18.822;2023-06-26T01:02:52;14.47;;;9.33;;
70165;SDS011;57541;47.408;18.822;2023-06-26T01:03:24;14.02;;;9.63;;
70165;SDS011;57541;47.408;18.822;2023-06-26T01:03:56;15.30;;;10.20;;
70165;SDS011;57541;47.408;18.822;2023-06-26T01:04:28;14.25;;;8.93;;
70165;SDS011;57541;47.408;18.822;2023-06-26T01:05:04;12.88;;;8.93;;
70165;SDS011;57541;47.408;18.822;2023-06-26T01:05:37;14.73;;;9.40;;
70165;SDS011;57541;47.408;18.822;2023-06-26T01:06:10;15.18;;;9.43;;
70165;SDS011;57541;47.408;18.822;2023-06-26T01:06:47;15.65;;;9.07;;
70165;SDS011;57541;47.408;18.822;2023-06-26T01:07:21;14.80;;;9.30;;
70165;SDS011;57541;47.408;18.822;2023-06-26T01:07:54;14.13;;;9.10;;
70165;SDS011;57541;47.408;18.822;2023-06-26T01:08:26;15.03;;;9.63;;
70165;SDS011;57541;47.408;18.822;2023-06-26T01:08:59;14.15;;;9.20;;
70165;SDS011;57541;47.408;18.822;2023-06-26T01:09:31;14.40;;;9.68;;
70165;SDS011;57541;47.408;18.822;2023-06-26T01:10:03;14.55;;;9.45;;
70165;SDS011;57541;47.408;18.822;2023-06-26T01:10:36;13.13;;;9.43;;
70165;SDS011;57541;47.408;18.822;2023-06-26T01:11:08;16.00;;;9.05;;
70165;SDS011;57541;47.408;18.822;2023-06-26T01:11:40;14.02;;;9.27;;
70165;SDS011;57541;47.408;18.822;2023-06-26T01:12:11;16.25;;;9.32;;
70165;SDS011;57541;47.408;18.822;2023-06-26T01:12:43;14.57;;;9.25;;
70165;SDS011;57541;47.408;18.822;2023-06-26T01:13:16;13.80;;;9.25;;
70165;SDS011;57541;47.408;18.822;2023-06-26T01:13:49;13.17;;;9.13;;
70165;SDS011;57541;47.408;18.822;2023-06-26T01:14:23;15.43;;;9.52;;
70165;SDS011;57541;47.408;18.822;2023-06-26T01:14:55;15.50;;;9.75;;
70165;SDS011;57541;47.408;18.822;2023-06-26T01:15:26;14.45;;;8.77;;
70165;SDS011;57541;47.408;18.822;2023-06-26T01:15:58;15.13;;;9.40;;
70165;SDS011;57541;47.408;18.822;2023-06-26T01:16:30;14.73;;;9.40;;
70165;SDS011;57541;47.408;18.822;2023-06-26T01:17:03;15.07;;;9.10;;
70165;SDS011;57541;47.408;18.822;2023-06-26T01:17:36;14.35;;;9.18;;
70165;SDS011;57541;47.408;18.822;2023-06-26T01:18:08;15.50;;;9.18;;
70165;SDS011;57541;47.408;18.822;2023-06-26T01:18:40;15.55;;;9.43;;
70165;SDS011;57541;47.408;18.822;2023-06-26T01:19:23;14.77;;;8.93;;
70165;SDS011;57541;47.408;18.822;2023-06-26T01:19:58;16.00;;;9.60;;
70165;SDS011;57541;47.408;18.822;2023-06-26T01:20:32;15.77;;;10.23;;
70165;SDS011;57541;47.408;18.822;2023-06-26T01:21:09;15.20;;;9.57;;
70165;SDS011;57541;47.408;18.822;2023-06-26T01:21:43;18.42;;;9.82;;
70165;SDS011;57541;47.408;18.822;2023-06-26T01:23:58;14.93;;;9.98;;
70165;SDS011;57541;47.408;18.822;2023-06-26T01:24:37;16.65;;;9.10;;
70165;SDS011;57541;47.408;18.822;2023-06-26T01:26:46;13.23;;;8.93;;
70165;SDS011;57541;47.408;18.822;2023-06-26T01:27:21;14.10;;;9.25;;
70165;SDS011;57541;47.408;18.822;2023-06-26T01:27:53;16.73;;;9.65;;
70165;SDS011;57541;47.408;18.822;2023-06-26T01:28:26;15.50;;;9.50;;
70165;SDS011;57541;47.408;18.822;2023-06-26T01:28:59;15.00;;;8.95;;
70165;SDS011;57541;47.408;18.822;2023-06-26T01:29:32;18.65;;;9.95;;
70165;SDS011;57541;47.408;18.822;2023-06-26T01:30:05;17.25;;;9.98;;
70165;SDS011;57541;47.408;18.822;2023-06-26T01:30:44;17.00;;;10.13;;
70165;SDS011;57541;47.408;18.822;2023-06-26T01:31:16;13.40;;;9.57;;
70165;SDS011;57541;47.408;18.822;2023-06-26T01:31:50;14.30;;;9.50;;
70165;SDS011;57541;47.408;18.822;2023-06-26T01:32:22;13.60;;;9.70;;
70165;SDS011;57541;47.408;18.822;2023-06-26T01:32:54;14.77;;;9.10;;
70165;SDS011;57541;47.408;18.822;2023-06-26T01:33:26;14.95;;;10.07;;
70165;SDS011;57541;47.408;18.822;2023-06-26T01:33:58;14.43;;;9.88;;
70165;SDS011;57541;47.408;18.822;2023-06-26T01:34:31;16.23;;;9.77;;
70165;SDS011;57541;47.408;18.822;2023-06-26T01:35:04;13.32;;;8.80;;
70165;SDS011;57541;47.408;18.822;2023-06-26T01:35:38;13.90;;;9.52;;
70165;SDS011;57541;47.408;18.822;2023-06-26T01:36:10;14.30;;;9.63;;
70165;SDS011;57541;47.408;18.822;2023-06-26T01:36:42;15.93;;;9.75;;
70165;SDS011;57541;47.408;18.822;2023-06-26T01:37:15;15.93;;;9.90;;
70165;SDS011;57541;47.408;18.822;2023-06-26T01:37:46;15.80;;;9.73;;
70165;SDS011;57541;47.408;18.822;2023-06-26T01:38:19;14.80;;;10.00;;
70165;SDS011;57541;47.408;18.822;2023-06-26T01:38:51;16.55;;;10.23;;
70165;SDS011;57541;47.408;18.822;2023-06-26T01:39:24;16.02;;;9.85;;
70165;SDS011;57541;47.408;18.822;2023-06-26T01:39:56;15.88;;;9.77;;
70165;SDS011;57541;47.408;18.822;2023-06-26T01:40:27;14.45;;;9.75;;
70165;SDS011;57541;47.408;18.822;2023-06-26T01:40:59;16.23;;;9.88;;
70165;SDS011;57541;47.408;18.822;2023-06-26T01:41:31;17.27;;;9.63;;
70165;SDS011;57541;47.408;18.822;2023-06-26T01:42:02;15.73;;;9.70;;
70165;SDS011;57541;47.408;18.822;2023-06-26T01:42:34;15.90;;;10.37;;
70165;SDS011;57541;47.408;18.822;2023-06-26T01:43:08;17.60;;;9.88;;
70165;SDS011;57541;47.408;18.822;2023-06-26T01:44:44;15.45;;;10.18;;
70165;SDS011;57541;47.408;18.822;2023-06-26T01:45:20;15.48;;;9.63;;
70165;SDS011;57541;47.408;18.822;2023-06-26T01:46:09;16.00;;;9.90;;
70165;SDS011;57541;47.408;18.822;2023-06-26T01:47:00;14.20;;;9.55;;
70165;SDS011;57541;47.408;18.822;2023-06-26T01:47:36;15.55;;;9.68;;
70165;SDS011;57541;47.408;18.822;2023-06-26T01:48:11;16.88;;;10.52;;
70165;SDS011;57541;47.408;18.822;2023-06-26T01:48:49;15.10;;;9.85;;
70165;SDS011;57541;47.408;18.822;2023-06-26T01:50:18;16.77;;;10.35;;
70165;SDS011;57541;47.408;18.822;2023-06-26T01:50:55;15.57;;;10.13;;
70165;SDS011;57541;47.408;18.822;2023-06-26T01:51:35;14.48;;;10.32;;
70165;SDS011;57541;47.408;18.822;2023-06-26T01:52:23;16.52;;;10.48;;
70165;SDS011;57541;47.408;18.822;2023-06-26T01:53:04;15.60;;;9.60;;
70165;SDS011;57541;47.408;18.822;2023-06-26T01:53:45;14.52;;;10.07;;
70165;SDS011;57541;47.408;18.822;2023-06-26T01:54:23;15.95;;;9.52;;
70165;SDS011;57541;47.408;18.822;2023-06-26T01:55:05;16.17;;;10.63;;
70165;SDS011;57541;47.408;18.822;2023-06-26T01:55:59;16.77;;;10.07;;
70165;SDS011;57541;47.408;18.822;2023-06-26T01:56:33;16.57;;;9.97;;
70165;SDS011;57541;47.408;18.822;2023-06-26T01:57:08;16.00;;;9.35;;
70165;SDS011;57541;47.408;18.822;2023-06-26T01:57:41;15.25;;;9.85;;
70165;SDS011;57541;47.408;18.822;2023-06-26T01:58:13;15.75;;;10.10;;
70165;SDS011;57541;47.408;18.822;2023-06-26T01:58:48;18.73;;;9.85;;
70165;SDS011;57541;47.408;18.822;2023-06-26T01:59:24;15.55;;;10.48;;
70165;SDS011;57541;47.408;18.822;2023-06-26T02:00:00;16.10;;;10.52;;
70165;SDS011;57541;47.408;18.822;2023-06-26T02:00:33;16.02;;;10.43;;
70165;SDS011;57541;47.408;18.822;2023-06-26T02:01:06;18.50;;;10.10;;
70165;SDS011;57541;47.408;18.822;2023-06-26T02:01:38;17.48;;;10.05;;
70165;SDS011;57541;47.408;18.822;2023-06-26T02:02:10;16.67;;;10.60;;
70165;SDS011;57541;47.408;18.822;2023-06-26T02:02:42;17.98;;;10.80;;
70165;SDS011;57541;47.408;18.822;2023-06-26T02:03:14;16.20;;;10.43;;
70165;SDS011;57541;47.408;18.822;2023-06-26T02:03:46;16.73;;;10.38;;
70165;SDS011;57541;47.408;18.822;2023-06-26T02:04:18;16.40;;;10.05;;
70165;SDS011;57541;47.408;18.822;2023-06-26T02:04:49;15.23;;;10.38;;
70165;SDS011;57541;47.408;18.822;2023-06-26T02:05:21;15.35;;;10.50;;
70165;SDS011;57541;47.408;18.822;2023-06-26T02:05:54;16.60;;;10.43;;
70165;SDS011;57541;47.408;18.822;2023-06-26T02:06:26;17.00;;;11.00;;
70165;SDS011;57541;47.408;18.822;2023-06-26T02:06:58;15.10;;;10.27;;
70165;SDS011;57541;47.408;18.822;2023-06-26T02:07:29;17.00;;;11.20;;
70165;SDS011;57541;47.408;18.822;2023-06-26T02:08:01;16.45;;;10.38;;
70165;SDS011;57541;47.408;18.822;2023-06-26T02:08:34;15.55;;;10.70;;
70165;SDS011;57541;47.408;18.822;2023-06-26T02:09:05;16.23;;;10.85;;
70165;SDS011;57541;47.408;18.822;2023-06-26T02:09:37;15.38;;;10.32;;
70165;SDS011;57541;47.408;18.822;2023-06-26T02:10:09;17.95;;;10.63;;
70165;SDS011;57541;47.408;18.822;2023-06-26T02:10:41;14.57;;;9.95;;
70165;SDS011;57541;47.408;18.822;2023-06-26T02:11:13;17.73;;;10.75;;
70165;SDS011;57541;47.408;18.822;2023-06-26T02:11:44;16.67;;;10.13;;
70165;SDS011;57541;47.408;18.822;2023-06-26T02:12:16;16.45;;;10.73;;
70165;SDS011;57541;47.408;18.822;2023-06-26T02:12:48;15.70;;;10.30;;
70165;SDS011;57541;47.408;18.822;2023-06-26T02:13:19;17.02;;;11.20;;
70165;SDS011;57541;47.408;18.822;2023-06-26T02:13:51;16.02;;;10.70;;
70165;SDS011;57541;47.408;18.822;2023-06-26T02:14:23;16.40;;;11.23;;
70165;SDS011;57541;47.408;18.822;2023-06-26T02:14:54;16.30;;;10.63;;
70165;SDS011;57541;47.408;18.822;2023-06-26T02:15:26;15.40;;;10.60;;
70165;SDS011;57541;47.408;18.822;2023-06-26T02:15:58;15.70;;;10.02;;
70165;SDS011;57541;47.408;18.822;2023-06-26T02:16:29;15.27;;;10.90;;
70165;SDS011;57541;47.408;18.822;2023-06-26T02:17:01;15.35;;;10.25;;
70165;SDS011;57541;47.408;18.822;2023-06-26T02:17:33;17.85;;;10.85;;
70165;SDS011;57541;47.408;18.822;2023-06-26T02:18:05;17.50;;;10.80;;
70165;SDS011;57541;47.408;18.822;2023-06-26T02:18:36;14.95;;;9.38;;
70165;SDS011;57541;47.408;18.822;2023-06-26T02:19:08;17.02;;;10.48;;
70165;SDS011;57541;47.408;18.822;2023-06-26T02:19:40;15.95;;;10.07;;
70165;SDS011;57541;47.408;18.822;2023-06-26T02:20:19;16.40;;;10.55;;
70165;SDS011;57541;47.408;18.822;2023-06-26T02:20:50;16.27;;;10.13;;
70165;SDS011;57541;47.408;18.822;2023-06-26T02:21:22;15.90;;;10.20;;
70165;SDS011;57541;47.408;18.822;2023-06-26T02:21:54;16.08;;;10.05;;
70165;SDS011;57541;47.408;18.822;2023-06-26T02:22:25;16.70;;;11.05;;
70165;SDS011;57541;47.408;18.822;2023-06-26T02:22:59;15.52;;;10.13;;
70165;SDS011;57541;47.408;18.822;2023-06-26T02:23:31;15.80;;;9.70;;
70165;SDS011;57541;47.408;18.822;2023-06-26T02:24:03;15.82;;;10.57;;
70165;SDS011;57541;47.408;18.822;2023-06-26T02:24:35;17.55;;;10.02;;
70165;SDS011;57541;47.408;18.822;2023-06-26T02:25:07;16.05;;;10.32;;
70165;SDS011;57541;47.408;18.822;2023-06-26T02:25:40;19.38;;;10.55;;
70165;SDS011;57541;47.408;18.822;2023-06-26T02:26:12;16.08;;;10.65;;
70165;SDS011;57541;47.408;18.822;2023-06-26T02:26:43;16.90;;;11.13;;
70165;SDS011;57541;47.408;18.822;2023-06-26T02:27:15;15.48;;;10.45;;
70165;SDS011;57541;47.408;18.822;2023-06-26T02:27:47;15.88;;;10.40;;
70165;SDS011;57541;47.408;18.822;2023-06-26T02:28:19;17.48;;;10.25;;
70165;SDS011;57541;47.408;18.822;2023-06-26T02:28:50;15.57;;;10.60;;
70165;SDS011;57541;47.408;18.822;2023-06-26T02:29:22;16.42;;;10.00;;
70165;SDS011;57541;47.408;18.822;2023-06-26T02:29:54;17.25;;;10.88;;
70165;SDS011;57541;47.408;18.822;2023-06-26T02:30:25;15.68;;;11.15;;
70165;SDS011;57541;47.408;18.822;2023-06-26T02:30:57;17.15;;;10.27;;
70165;SDS011;57541;47.408;18.822;2023-06-26T02:31:29;16.73;;;10.38;;
70165;SDS011;57541;47.408;18.822;2023-06-26T02:32:01;16.92;;;10.68;;
70165;SDS011;57541;47.408;18.822;2023-06-26T02:32:33;16.42;;;10.45;;
70165;SDS011;57541;47.408;18.822;2023-06-26T02:33:04;15.65;;;10.30;;
70165;SDS011;57541;47.408;18.822;2023-06-26T02:33:36;16.42;;;10.93;;
70165;SDS011;57541;47.408;18.822;2023-06-26T02:34:08;18.30;;;11.13;;
70165;SDS011;57541;47.408;18.822;2023-06-26T02:34:39;16.38;;;10.70;;
70165;SDS011;57541;47.408;18.822;2023-06-26T02:35:11;16.23;;;10.60;;
70165;SDS011;57541;47.408;18.822;2023-06-26T02:35:43;16.10;;;10.10;;
70165;SDS011;57541;47.408;18.822;2023-06-26T02:36:14;15.65;;;10.25;;
70165;SDS011;57541;47.408;18.822;2023-06-26T02:36:46;15.48;;;9.40;;
70165;SDS011;57541;47.408;18.822;2023-06-26T02:37:18;15.85;;;10.82;;
70165;SDS011;57541;47.408;18.822;2023-06-26T02:37:50;18.77;;;10.52;;
70165;SDS011;57541;47.408;18.822;2023-06-26T02:38:21;16.95;;;10.95;;
70165;SDS011;57541;47.408;18.822;2023-06-26T02:38:53;16.30;;;11.15;;
70165;SDS011;57541;47.408;18.822;2023-06-26T02:39:25;17.67;;;11.80;;
70165;SDS011;57541;47.408;18.822;2023-06-26T02:39:56;16.65;;;11.05;;
70165;SDS011;57541;47.408;18.822;2023-06-26T02:40:28;17.90;;;10.63;;
70165;SDS011;57541;47.408;18.822;2023-06-26T02:41:00;16.48;;;11.02;;
70165;SDS011;57541;47.408;18.822;2023-06-26T02:41:31;15.20;;;10.15;;
70165;SDS011;57541;47.408;18.822;2023-06-26T02:42:03;17.15;;;10.48;;
70165;SDS011;57541;47.408;18.822;2023-06-26T02:42:35;16.10;;;10.93;;
70165;SDS011;57541;47.408;18.822;2023-06-26T02:43:06;16.42;;;11.30;;
70165;SDS011;57541;47.408;18.822;2023-06-26T02:43:38;16.02;;;10.50;;
70165;SDS011;57541;47.408;18.822;2023-06-26T02:44:10;17.15;;;10.25;;
70165;SDS011;57541;47.408;18.822;2023-06-26T02:44:43;18.17;;;11.13;;
70165;SDS011;57541;47.408;18.822;2023-06-26T02:45:15;17.80;;;10.55;;
70165;SDS011;57541;47.408;18.822;2023-06-26T02:45:46;15.57;;;10.85;;
70165;SDS011;57541;47.408;18.822;2023-06-26T02:46:18;14.85;;;10.70;;
70165;SDS011;57541;47.408;18.822;2023-06-26T02:46:50;16.65;;;10.52;;
70165;SDS011;57541;47.408;18.822;2023-06-26T02:47:21;20.67;;;11.35;;
70165;SDS011;57541;47.408;18.822;2023-06-26T02:47:53;15.57;;;10.25;;
70165;SDS011;57541;47.408;18.822;2023-06-26T02:48:25;15.30;;;10.70;;
70165;SDS011;57541;47.408;18.822;2023-06-26T02:48:57;14.98;;;10.88;;
70165;SDS011;57541;47.408;18.822;2023-06-26T02:49:29;17.20;;;10.45;;
70165;SDS011;57541;47.408;18.822;2023-06-26T02:50:00;15.37;;;10.53;;
70165;SDS011;57541;47.408;18.822;2023-06-26T02:50:32;15.77;;;10.82;;
70165;SDS011;57541;47.408;18.822;2023-06-26T02:51:04;17.08;;;10.77;;
70165;SDS011;57541;47.408;18.822;2023-06-26T02:51:35;18.63;;;10.05;;
70165;SDS011;57541;47.408;18.822;2023-06-26T02:52:07;15.80;;;9.93;;
70165;SDS011;57541;47.408;18.822;2023-06-26T02:52:39;14.55;;;10.57;;
70165;SDS011;57541;47.408;18.822;2023-06-26T02:53:10;14.38;;;10.15;;
70165;SDS011;57541;47.408;18.822;2023-06-26T02:53:42;14.25;;;9.85;;
70165;SDS011;57541;47.408;18.822;2023-06-26T02:54:14;18.40;;;11.30;;
70165;SDS011;57541;47.408;18.822;2023-06-26T02:54:45;15.75;;;10.18;;
70165;SDS011;57541;47.408;18.822;2023-06-26T02:55:18;16.03;;;10.20;;
70165;SDS011;57541;47.408;18.822;2023-06-26T02:55:53;18.38;;;11.02;;
70165;SDS011;57541;47.408;18.822;2023-06-26T02:56:25;19.08;;;11.20;;
70165;SDS011;57541;47.408;18.822;2023-06-26T02:57:00;15.75;;;10.63;;
70165;SDS011;57541;47.408;18.822;2023-06-26T02:57:31;16.95;;;10.40;;
70165;SDS011;57541;47.408;18.822;2023-06-26T02:58:03;14.88;;;9.80;;
70165;SDS011;57541;47.408;18.822;2023-06-26T02:58:36;16.25;;;9.82;;
70165;SDS011;57541;47.408;18.822;2023-06-26T02:59:08;17.20;;;11.02;;
70165;SDS011;57541;47.408;18.822;2023-06-26T02:59:39;15.05;;;10.13;;
70165;SDS011;57541;47.408;18.822;2023-06-26T03:00:11;16.48;;;10.25;;
70165;SDS011;57541;47.408;18.822;2023-06-26T03:00:44;15.33;;;10.13;;
70165;SDS011;57541;47.408;18.822;2023-06-26T03:01:16;16.48;;;10.90;;
70165;SDS011;57541;47.408;18.822;2023-06-26T03:01:48;14.80;;;10.70;;
70165;SDS011;57541;47.408;18.822;2023-06-26T03:02:20;17.15;;;11.85;;
70165;SDS011;57541;47.408;18.822;2023-06-26T03:02:52;15.18;;;9.60;;
70165;SDS011;57541;47.408;18.822;2023-06-26T03:03:23;17.73;;;10.25;;
70165;SDS011;57541;47.408;18.822;2023-06-26T03:03:55;16.15;;;11.00;;
70165;SDS011;57541;47.408;18.822;2023-06-26T03:04:27;15.55;;;10.30;;
70165;SDS011;57541;47.408;18.822;2023-06-26T03:04:58;16.67;;;10.48;;
70165;SDS011;57541;47.408;18.822;2023-06-26T03:05:30;15.95;;;10.15;;
70165;SDS011;57541;47.408;18.822;2023-06-26T03:06:02;16.50;;;10.57;;
70165;SDS011;57541;47.408;18.822;2023-06-26T03:06:33;18.30;;;11.00;;
70165;SDS011;57541;47.408;18.822;2023-06-26T03:07:05;15.85;;;10.85;;
70165;SDS011;57541;47.408;18.822;2023-06-26T03:07:37;18.38;;;10.80;;
70165;SDS011;57541;47.408;18.822;2023-06-26T03:08:09;15.60;;;10.82;;
70165;SDS011;57541;47.408;18.822;2023-06-26T03:08:40;16.65;;;10.50;;
70165;SDS011;57541;47.408;18.822;2023-06-26T03:09:12;19.60;;;11.13;;
70165;SDS011;57541;47.408;18.822;2023-06-26T03:09:44;19.02;;;11.13;;
70165;SDS011;57541;47.408;18.822;2023-06-26T03:10:15;14.98;;;10.00;;
70165;SDS011;57541;47.408;18.822;2023-06-26T03:10:47;16.55;;;10.32;;
70165;SDS011;57541;47.408;18.822;2023-06-26T03:11:19;16.53;;;10.73;;
70165;SDS011;57541;47.408;18.822;2023-06-26T03:11:51;18.02;;;11.05;;
70165;SDS011;57541;47.408;18.822;2023-06-26T03:12:25;17.08;;;10.70;;
70165;SDS011;57541;47.408;18.822;2023-06-26T03:12:56;17.55;;;10.63;;
70165;SDS011;57541;47.408;18.822;2023-06-26T03:13:28;14.63;;;10.55;;
70165;SDS011;57541;47.408;18.822;2023-06-26T03:14:00;17.60;;;11.05;;
70165;SDS011;57541;47.408;18.822;2023-06-26T03:14:31;16.33;;;10.27;;
70165;SDS011;57541;47.408;18.822;2023-06-26T03:15:03;16.33;;;10.40;;
70165;SDS011;57541;47.408;18.822;2023-06-26T03:15:35;18.73;;;11.43;;